sensor_id;sensor_type;location;lat;lon;timestamp;temperature;humidity
17659;DHT22;8948;51.534;8.262;2024-02-23T00:04:10;8.40;61.40
17659;DHT22;8948;51.534;8.262;2024-02-23T00:09:10;8.30;61.70
17659;DHT22;8948;51.534;8.262;2024-02-23T00:14:11;8.20;62.40
17659;DHT22;8948;51.534;8.262;2024-02-23T00:19:13;8.10;60.20
17659;DHT22;8948;51.534;8.262;2024-02-23T00:24:13;7.90;60.60
17659;DHT22;8948;51.534;8.262;2024-02-23T00:29:16;7.90;60.40
17659;DHT22;8948;51.534;8.262;2024-02-23T00:34:17;7.70;61.10
17659;DHT22;8948;51.534;8.262;2024-02-23T00:39:18;7.60;60.70
17659;DHT22;8948;51.534;8.262;2024-02-23T00:44:18;7.60;61.20
17659;DHT22;8948;51.534;8.262;2024-02-23T00:49:19;7.40;63.60
17659;DHT22;8948;51.534;8.262;2024-02-23T00:54:19;7.40;63.20
17659;DHT22;8948;51.534;8.262;2024-02-23T00:59:20;7.30;63.70
17659;DHT22;8948;51.534;8.262;2024-02-23T01:04:21;7.20;63.20
17659;DHT22;8948;51.534;8.262;2024-02-23T01:09:21;7.10;62.20
17659;DHT22;8948;51.534;8.262;2024-02-23T01:14:22;7.10;63.00
17659;DHT22;8948;51.534;8.262;2024-02-23T01:19:23;6.90;63.20
17659;DHT22;8948;51.534;8.262;2024-02-23T01:24:24;7.00;64.80
17659;DHT22;8948;51.534;8.262;2024-02-23T01:29:26;6.90;66.70
17659;DHT22;8948;51.534;8.262;2024-02-23T01:34:27;6.80;66.90
17659;DHT22;8948;51.534;8.262;2024-02-23T01:39:27;6.80;66.50
17659;DHT22;8948;51.534;8.262;2024-02-23T01:44:28;6.90;66.40
17659;DHT22;8948;51.534;8.262;2024-02-23T01:49:28;6.90;66.00
17659;DHT22;8948;51.534;8.262;2024-02-23T01:54:34;7.00;66.20
17659;DHT22;8948;51.534;8.262;2024-02-23T01:59:38;6.90;62.90
17659;DHT22;8948;51.534;8.262;2024-02-23T02:04:39;6.80;62.40
17659;DHT22;8948;51.534;8.262;2024-02-23T02:09:40;6.70;61.00
17659;DHT22;8948;51.534;8.262;2024-02-23T02:14:41;6.50;61.40
17659;DHT22;8948;51.534;8.262;2024-02-23T02:19:48;6.50;62.40
17659;DHT22;8948;51.534;8.262;2024-02-23T02:24:49;6.50;63.00
17659;DHT22;8948;51.534;8.262;2024-02-23T02:29:52;6.60;63.10
17659;DHT22;8948;51.534;8.262;2024-02-23T02:34:53;6.50;63.20
17659;DHT22;8948;51.534;8.262;2024-02-23T02:39:53;6.50;63.50
17659;DHT22;8948;51.534;8.262;2024-02-23T02:44:54;6.50;63.40
17659;DHT22;8948;51.534;8.262;2024-02-23T02:49:54;6.50;63.20
17659;DHT22;8948;51.534;8.262;2024-02-23T02:54:55;6.50;63.40
17659;DHT22;8948;51.534;8.262;2024-02-23T02:59:55;6.50;63.40
17659;DHT22;8948;51.534;8.262;2024-02-23T03:04:56;6.50;64.30
17659;DHT22;8948;51.534;8.262;2024-02-23T03:09:57;6.50;63.30
17659;DHT22;8948;51.534;8.262;2024-02-23T03:14:57;6.50;63.80
17659;DHT22;8948;51.534;8.262;2024-02-23T03:19:58;6.50;64.60
17659;DHT22;8948;51.534;8.262;2024-02-23T03:24:59;6.50;64.40
17659;DHT22;8948;51.534;8.262;2024-02-23T03:29:59;6.50;64.00
17659;DHT22;8948;51.534;8.262;2024-02-23T03:35:00;6.50;64.40
17659;DHT22;8948;51.534;8.262;2024-02-23T03:40:01;6.40;62.40
17659;DHT22;8948;51.534;8.262;2024-02-23T03:45:01;6.40;64.00
17659;DHT22;8948;51.534;8.262;2024-02-23T03:50:02;6.30;64.10
17659;DHT22;8948;51.534;8.262;2024-02-23T03:55:03;6.20;64.10
17659;DHT22;8948;51.534;8.262;2024-02-23T04:00:04;6.20;65.00
17659;DHT22;8948;51.534;8.262;2024-02-23T04:05:07;6.10;63.60
17659;DHT22;8948;51.534;8.262;2024-02-23T04:10:08;6.10;64.80
17659;DHT22;8948;51.534;8.262;2024-02-23T04:15:09;6.10;65.60
17659;DHT22;8948;51.534;8.262;2024-02-23T04:20:10;6.10;64.50
17659;DHT22;8948;51.534;8.262;2024-02-23T04:25:10;6.00;65.30
17659;DHT22;8948;51.534;8.262;2024-02-23T04:30:11;5.90;64.70
17659;DHT22;8948;51.534;8.262;2024-02-23T04:35:12;5.90;65.70
17659;DHT22;8948;51.534;8.262;2024-02-23T04:40:13;5.90;65.50
17659;DHT22;8948;51.534;8.262;2024-02-23T04:45:13;5.90;65.30
17659;DHT22;8948;51.534;8.262;2024-02-23T04:50:14;5.90;65.10
17659;DHT22;8948;51.534;8.262;2024-02-23T04:55:15;5.90;65.70
17659;DHT22;8948;51.534;8.262;2024-02-23T05:00:15;6.00;65.00
17659;DHT22;8948;51.534;8.262;2024-02-23T05:05:16;5.90;65.10
17659;DHT22;8948;51.534;8.262;2024-02-23T05:10:16;5.90;64.90
17659;DHT22;8948;51.534;8.262;2024-02-23T05:15:17;5.80;65.10
17659;DHT22;8948;51.534;8.262;2024-02-23T05:20:18;5.70;65.50
17659;DHT22;8948;51.534;8.262;2024-02-23T05:25:18;5.70;64.60
17659;DHT22;8948;51.534;8.262;2024-02-23T05:30:19;5.60;65.30
17659;DHT22;8948;51.534;8.262;2024-02-23T05:35:20;5.50;65.50
17659;DHT22;8948;51.534;8.262;2024-02-23T05:40:21;5.60;65.80
17659;DHT22;8948;51.534;8.262;2024-02-23T05:45:21;5.50;66.20
17659;DHT22;8948;51.534;8.262;2024-02-23T05:50:22;5.50;65.80
17659;DHT22;8948;51.534;8.262;2024-02-23T05:55:23;5.60;65.50
17659;DHT22;8948;51.534;8.262;2024-02-23T06:00:24;5.70;66.10
17659;DHT22;8948;51.534;8.262;2024-02-23T06:05:25;5.80;66.70
17659;DHT22;8948;51.534;8.262;2024-02-23T06:10:25;5.70;64.50
17659;DHT22;8948;51.534;8.262;2024-02-23T06:15:26;5.70;65.10
17659;DHT22;8948;51.534;8.262;2024-02-23T06:20:27;5.70;64.80
17659;DHT22;8948;51.534;8.262;2024-02-23T06:25:27;5.70;65.00
17659;DHT22;8948;51.534;8.262;2024-02-23T06:30:28;5.70;64.70
17659;DHT22;8948;51.534;8.262;2024-02-23T06:35:28;5.60;64.60
17659;DHT22;8948;51.534;8.262;2024-02-23T06:40:29;5.60;65.00
17659;DHT22;8948;51.534;8.262;2024-02-23T06:45:29;5.60;65.50
17659;DHT22;8948;51.534;8.262;2024-02-23T06:50:30;5.50;65.30
17659;DHT22;8948;51.534;8.262;2024-02-23T06:55:30;5.50;65.30
17659;DHT22;8948;51.534;8.262;2024-02-23T07:00:31;5.50;65.50
17659;DHT22;8948;51.534;8.262;2024-02-23T07:05:32;5.50;65.80
17659;DHT22;8948;51.534;8.262;2024-02-23T07:10:32;5.60;65.30
17659;DHT22;8948;51.534;8.262;2024-02-23T07:15:34;5.70;65.30
17659;DHT22;8948;51.534;8.262;2024-02-23T07:20:36;5.70;64.30
17659;DHT22;8948;51.534;8.262;2024-02-23T07:25:37;5.70;64.80
17659;DHT22;8948;51.534;8.262;2024-02-23T07:30:37;5.90;66.20
17659;DHT22;8948;51.534;8.262;2024-02-23T07:35:38;6.00;63.70
17659;DHT22;8948;51.534;8.262;2024-02-23T07:40:38;6.00;64.10
17659;DHT22;8948;51.534;8.262;2024-02-23T07:45:40;5.90;64.10
17659;DHT22;8948;51.534;8.262;2024-02-23T07:50:40;5.80;64.70
17659;DHT22;8948;51.534;8.262;2024-02-23T07:55:41;5.80;64.70
17659;DHT22;8948;51.534;8.262;2024-02-23T08:00:41;6.00;65.00
17659;DHT22;8948;51.534;8.262;2024-02-23T08:05:42;6.10;64.30
17659;DHT22;8948;51.534;8.262;2024-02-23T08:10:43;6.10;64.60
17659;DHT22;8948;51.534;8.262;2024-02-23T08:15:44;6.30;64.20
17659;DHT22;8948;51.534;8.262;2024-02-23T08:20:45;6.70;63.50
17659;DHT22;8948;51.534;8.262;2024-02-23T08:25:46;7.00;62.90
17659;DHT22;8948;51.534;8.262;2024-02-23T08:30:47;7.20;61.90
17659;DHT22;8948;51.534;8.262;2024-02-23T08:35:48;7.20;60.90
17659;DHT22;8948;51.534;8.262;2024-02-23T08:40:51;7.50;60.20
17659;DHT22;8948;51.534;8.262;2024-02-23T08:45:52;7.40;60.70
17659;DHT22;8948;51.534;8.262;2024-02-23T08:50:52;7.30;62.10
17659;DHT22;8948;51.534;8.262;2024-02-23T08:55:53;7.20;61.50
17659;DHT22;8948;51.534;8.262;2024-02-23T09:00:53;7.00;62.60
17659;DHT22;8948;51.534;8.262;2024-02-23T09:05:54;7.10;61.60
17659;DHT22;8948;51.534;8.262;2024-02-23T09:10:54;7.10;60.90
17659;DHT22;8948;51.534;8.262;2024-02-23T09:15:55;7.10;61.40
17659;DHT22;8948;51.534;8.262;2024-02-23T09:20:56;7.40;61.20
17659;DHT22;8948;51.534;8.262;2024-02-23T09:25:56;7.80;61.90
17659;DHT22;8948;51.534;8.262;2024-02-23T09:30:57;8.20;59.30
17659;DHT22;8948;51.534;8.262;2024-02-23T09:35:58;8.40;58.80
17659;DHT22;8948;51.534;8.262;2024-02-23T09:40:59;8.30;58.40
17659;DHT22;8948;51.534;8.262;2024-02-23T09:46:01;8.40;60.00
17659;DHT22;8948;51.534;8.262;2024-02-23T09:51:02;8.60;58.50
17659;DHT22;8948;51.534;8.262;2024-02-23T09:56:04;8.30;58.80
17659;DHT22;8948;51.534;8.262;2024-02-23T10:01:06;8.20;60.00
17659;DHT22;8948;51.534;8.262;2024-02-23T10:06:06;8.20;59.60
17659;DHT22;8948;51.534;8.262;2024-02-23T10:11:07;8.10;59.40
17659;DHT22;8948;51.534;8.262;2024-02-23T10:16:08;8.30;59.50
17659;DHT22;8948;51.534;8.262;2024-02-23T10:21:09;8.50;59.30
17659;DHT22;8948;51.534;8.262;2024-02-23T10:26:09;9.00;58.00
17659;DHT22;8948;51.534;8.262;2024-02-23T10:31:10;9.40;55.10
17659;DHT22;8948;51.534;8.262;2024-02-23T10:36:12;9.80;55.40
17659;DHT22;8948;51.534;8.262;2024-02-23T10:41:17;9.80;56.10
17659;DHT22;8948;51.534;8.262;2024-02-23T10:46:21;9.80;54.30
17659;DHT22;8948;51.534;8.262;2024-02-23T10:51:21;10.20;54.30
17659;DHT22;8948;51.534;8.262;2024-02-23T10:56:23;9.90;53.70
17659;DHT22;8948;51.534;8.262;2024-02-23T11:01:25;9.40;55.90
17659;DHT22;8948;51.534;8.262;2024-02-23T11:06:28;9.20;56.00
17659;DHT22;8948;51.534;8.262;2024-02-23T11:11:31;9.10;57.80
17659;DHT22;8948;51.534;8.262;2024-02-23T11:16:32;9.30;57.80
17659;DHT22;8948;51.534;8.262;2024-02-23T11:21:34;9.60;56.90
17659;DHT22;8948;51.534;8.262;2024-02-23T11:26:37;9.40;55.90
17659;DHT22;8948;51.534;8.262;2024-02-23T11:31:44;9.60;56.90
17659;DHT22;8948;51.534;8.262;2024-02-23T11:36:50;9.50;56.70
17659;DHT22;8948;51.534;8.262;2024-02-23T11:41:52;9.40;56.00
17659;DHT22;8948;51.534;8.262;2024-02-23T11:46:52;9.40;55.70
17659;DHT22;8948;51.534;8.262;2024-02-23T11:51:53;9.70;57.00
17659;DHT22;8948;51.534;8.262;2024-02-23T11:56:54;9.90;56.30
17659;DHT22;8948;51.534;8.262;2024-02-23T12:01:55;10.10;54.50
17659;DHT22;8948;51.534;8.262;2024-02-23T12:06:56;10.70;55.30
17659;DHT22;8948;51.534;8.262;2024-02-23T12:11:57;10.90;54.10
17659;DHT22;8948;51.534;8.262;2024-02-23T12:16:58;10.40;54.80
17659;DHT22;8948;51.534;8.262;2024-02-23T12:22:02;10.10;54.10
17659;DHT22;8948;51.534;8.262;2024-02-23T12:27:03;9.80;54.90
17659;DHT22;8948;51.534;8.262;2024-02-23T12:32:06;10.00;55.30
17659;DHT22;8948;51.534;8.262;2024-02-23T12:37:07;10.00;56.20
17659;DHT22;8948;51.534;8.262;2024-02-23T12:42:09;10.30;55.90
17659;DHT22;8948;51.534;8.262;2024-02-23T12:47:09;10.00;54.40
17659;DHT22;8948;51.534;8.262;2024-02-23T12:52:10;10.10;56.50
17659;DHT22;8948;51.534;8.262;2024-02-23T12:57:11;11.00;53.40
17659;DHT22;8948;51.534;8.262;2024-02-23T13:02:12;10.40;54.30
17659;DHT22;8948;51.534;8.262;2024-02-23T13:07:12;10.10;55.40
17659;DHT22;8948;51.534;8.262;2024-02-23T13:12:13;10.10;55.30
17659;DHT22;8948;51.534;8.262;2024-02-23T13:17:14;10.90;54.90
17659;DHT22;8948;51.534;8.262;2024-02-23T13:22:15;11.40;53.00
17659;DHT22;8948;51.534;8.262;2024-02-23T13:27:15;11.00;54.30
17659;DHT22;8948;51.534;8.262;2024-02-23T13:32:16;10.90;55.20
17659;DHT22;8948;51.534;8.262;2024-02-23T13:37:16;10.60;56.40
17659;DHT22;8948;51.534;8.262;2024-02-23T13:42:17;10.40;56.80
17659;DHT22;8948;51.534;8.262;2024-02-23T13:47:17;10.20;56.60
17659;DHT22;8948;51.534;8.262;2024-02-23T13:52:18;10.00;58.10
17659;DHT22;8948;51.534;8.262;2024-02-23T13:57:18;9.90;56.50
17659;DHT22;8948;51.534;8.262;2024-02-23T14:02:26;9.80;57.40
17659;DHT22;8948;51.534;8.262;2024-02-23T14:07:29;9.70;57.70
17659;DHT22;8948;51.534;8.262;2024-02-23T14:12:30;9.60;56.70
17659;DHT22;8948;51.534;8.262;2024-02-23T14:17:31;9.60;57.90
17659;DHT22;8948;51.534;8.262;2024-02-23T14:22:31;9.70;57.50
17659;DHT22;8948;51.534;8.262;2024-02-23T14:27:32;9.60;58.50
17659;DHT22;8948;51.534;8.262;2024-02-23T14:32:32;9.70;59.20
17659;DHT22;8948;51.534;8.262;2024-02-23T14:37:33;9.70;57.80
17659;DHT22;8948;51.534;8.262;2024-02-23T14:42:34;9.70;56.70
17659;DHT22;8948;51.534;8.262;2024-02-23T14:47:34;9.80;56.70
17659;DHT22;8948;51.534;8.262;2024-02-23T14:52:35;10.10;58.40
17659;DHT22;8948;51.534;8.262;2024-02-23T14:57:36;10.30;56.70
17659;DHT22;8948;51.534;8.262;2024-02-23T15:02:36;10.60;54.40
17659;DHT22;8948;51.534;8.262;2024-02-23T15:07:37;10.90;54.10
17659;DHT22;8948;51.534;8.262;2024-02-23T15:12:37;11.20;54.30
17659;DHT22;8948;51.534;8.262;2024-02-23T15:17:38;10.80;54.80
17659;DHT22;8948;51.534;8.262;2024-02-23T15:22:41;10.70;54.70
17659;DHT22;8948;51.534;8.262;2024-02-23T15:27:43;11.00;55.00
17659;DHT22;8948;51.534;8.262;2024-02-23T15:32:43;11.00;52.90
17659;DHT22;8948;51.534;8.262;2024-02-23T15:37:44;10.80;54.60
17659;DHT22;8948;51.534;8.262;2024-02-23T15:42:45;10.70;55.40
17659;DHT22;8948;51.534;8.262;2024-02-23T15:47:46;10.50;55.00
17659;DHT22;8948;51.534;8.262;2024-02-23T15:52:47;10.30;56.60
17659;DHT22;8948;51.534;8.262;2024-02-23T15:57:48;10.20;57.20
17659;DHT22;8948;51.534;8.262;2024-02-23T16:02:50;10.40;57.80
17659;DHT22;8948;51.534;8.262;2024-02-23T16:07:50;10.00;57.50
17659;DHT22;8948;51.534;8.262;2024-02-23T16:12:51;9.60;59.20
17659;DHT22;8948;51.534;8.262;2024-02-23T16:17:51;9.60;59.70
17659;DHT22;8948;51.534;8.262;2024-02-23T16:22:52;9.60;60.10
17659;DHT22;8948;51.534;8.262;2024-02-23T16:27:53;9.60;59.30
17659;DHT22;8948;51.534;8.262;2024-02-23T16:32:54;9.60;59.60
17659;DHT22;8948;51.534;8.262;2024-02-23T16:37:54;9.70;59.70
17659;DHT22;8948;51.534;8.262;2024-02-23T16:42:56;9.60;60.70
17659;DHT22;8948;51.534;8.262;2024-02-23T16:47:57;9.50;60.70
17659;DHT22;8948;51.534;8.262;2024-02-23T16:52:57;9.50;60.30
17659;DHT22;8948;51.534;8.262;2024-02-23T16:57:58;9.40;59.10
17659;DHT22;8948;51.534;8.262;2024-02-23T17:02:59;9.30;58.70
17659;DHT22;8948;51.534;8.262;2024-02-23T17:08:00;9.10;58.20
17659;DHT22;8948;51.534;8.262;2024-02-23T17:13:01;9.10;58.60
17659;DHT22;8948;51.534;8.262;2024-02-23T17:18:02;9.00;58.40
17659;DHT22;8948;51.534;8.262;2024-02-23T17:23:03;8.90;57.20
17659;DHT22;8948;51.534;8.262;2024-02-23T17:28:04;8.60;57.20
17659;DHT22;8948;51.534;8.262;2024-02-23T17:33:04;8.60;58.10
17659;DHT22;8948;51.534;8.262;2024-02-23T17:38:06;8.50;58.50
17659;DHT22;8948;51.534;8.262;2024-02-23T17:43:07;8.30;58.50
17659;DHT22;8948;51.534;8.262;2024-02-23T17:48:07;8.20;59.50
17659;DHT22;8948;51.534;8.262;2024-02-23T17:53:09;8.20;59.60
17659;DHT22;8948;51.534;8.262;2024-02-23T17:58:09;8.10;59.40
17659;DHT22;8948;51.534;8.262;2024-02-23T18:03:10;8.10;59.50
17659;DHT22;8948;51.534;8.262;2024-02-23T18:08:10;8.10;59.40
17659;DHT22;8948;51.534;8.262;2024-02-23T18:13:11;8.00;59.50
17659;DHT22;8948;51.534;8.262;2024-02-23T18:18:12;7.90;59.60
17659;DHT22;8948;51.534;8.262;2024-02-23T18:23:13;8.00;59.30
17659;DHT22;8948;51.534;8.262;2024-02-23T18:28:13;7.90;59.30
17659;DHT22;8948;51.534;8.262;2024-02-23T18:33:15;7.90;59.60
17659;DHT22;8948;51.534;8.262;2024-02-23T18:38:16;7.80;59.60
17659;DHT22;8948;51.534;8.262;2024-02-23T18:43:17;7.80;59.80
17659;DHT22;8948;51.534;8.262;2024-02-23T18:48:17;7.70;60.20
17659;DHT22;8948;51.534;8.262;2024-02-23T18:53:20;7.70;59.80
17659;DHT22;8948;51.534;8.262;2024-02-23T18:58:21;7.70;59.80
17659;DHT22;8948;51.534;8.262;2024-02-23T19:03:22;7.60;59.60
17659;DHT22;8948;51.534;8.262;2024-02-23T19:08:23;7.70;59.60
17659;DHT22;8948;51.534;8.262;2024-02-23T19:13:23;7.70;59.60
17659;DHT22;8948;51.534;8.262;2024-02-23T19:18:24;7.70;59.30
17659;DHT22;8948;51.534;8.262;2024-02-23T19:23:24;7.60;59.30
17659;DHT22;8948;51.534;8.262;2024-02-23T19:28:25;7.60;59.20
17659;DHT22;8948;51.534;8.262;2024-02-23T19:33:25;7.60;59.40
17659;DHT22;8948;51.534;8.262;2024-02-23T19:38:26;7.50;59.50
17659;DHT22;8948;51.534;8.262;2024-02-23T19:43:28;7.60;59.10
17659;DHT22;8948;51.534;8.262;2024-02-23T19:48:29;7.50;59.40
17659;DHT22;8948;51.534;8.262;2024-02-23T19:53:30;7.50;58.90
17659;DHT22;8948;51.534;8.262;2024-02-23T19:58:30;7.50;59.10
17659;DHT22;8948;51.534;8.262;2024-02-23T20:03:31;7.60;58.80
17659;DHT22;8948;51.534;8.262;2024-02-23T20:08:32;7.60;59.20
17659;DHT22;8948;51.534;8.262;2024-02-23T20:13:32;7.50;59.10
17659;DHT22;8948;51.534;8.262;2024-02-23T20:18:33;7.50;59.40
17659;DHT22;8948;51.534;8.262;2024-02-23T20:23:34;7.40;59.40
17659;DHT22;8948;51.534;8.262;2024-02-23T20:28:34;7.40;59.80
17659;DHT22;8948;51.534;8.262;2024-02-23T20:33:35;7.40;60.00
17659;DHT22;8948;51.534;8.262;2024-02-23T20:38:35;7.40;59.90
17659;DHT22;8948;51.534;8.262;2024-02-23T20:43:36;7.40;60.40
17659;DHT22;8948;51.534;8.262;2024-02-23T20:48:36;7.30;60.40
17659;DHT22;8948;51.534;8.262;2024-02-23T20:53:37;7.30;60.50
17659;DHT22;8948;51.534;8.262;2024-02-23T20:58:37;7.30;60.70
17659;DHT22;8948;51.534;8.262;2024-02-23T21:03:38;7.30;61.00
17659;DHT22;8948;51.534;8.262;2024-02-23T21:08:39;7.30;61.10
17659;DHT22;8948;51.534;8.262;2024-02-23T21:13:39;7.30;61.50
17659;DHT22;8948;51.534;8.262;2024-02-23T21:18:40;7.20;61.80
17659;DHT22;8948;51.534;8.262;2024-02-23T21:23:40;7.10;62.10
17659;DHT22;8948;51.534;8.262;2024-02-23T21:28:42;7.10;62.30
17659;DHT22;8948;51.534;8.262;2024-02-23T21:33:42;7.00;62.50
17659;DHT22;8948;51.534;8.262;2024-02-23T21:38:45;7.00;62.90
17659;DHT22;8948;51.534;8.262;2024-02-23T21:43:45;7.00;63.20
17659;DHT22;8948;51.534;8.262;2024-02-23T21:48:46;6.90;63.60
17659;DHT22;8948;51.534;8.262;2024-02-23T21:53:48;6.80;63.80
17659;DHT22;8948;51.534;8.262;2024-02-23T21:58:48;6.70;64.10
17659;DHT22;8948;51.534;8.262;2024-02-23T22:03:49;6.60;64.40
17659;DHT22;8948;51.534;8.262;2024-02-23T22:08:53;6.60;64.50
17659;DHT22;8948;51.534;8.262;2024-02-23T22:13:53;6.60;64.00
17659;DHT22;8948;51.534;8.262;2024-02-23T22:18:54;6.60;64.10
17659;DHT22;8948;51.534;8.262;2024-02-23T22:23:54;6.70;64.20
17659;DHT22;8948;51.534;8.262;2024-02-23T22:28:55;6.60;64.00
17659;DHT22;8948;51.534;8.262;2024-02-23T22:33:56;6.60;64.60
17659;DHT22;8948;51.534;8.262;2024-02-23T22:38:57;6.50;65.20
17659;DHT22;8948;51.534;8.262;2024-02-23T22:43:57;6.50;65.40
17659;DHT22;8948;51.534;8.262;2024-02-23T22:48:57;6.40;65.80
17659;DHT22;8948;51.534;8.262;2024-02-23T22:53:58;6.40;65.60
17659;DHT22;8948;51.534;8.262;2024-02-23T22:58:59;6.40;66.20
17659;DHT22;8948;51.534;8.262;2024-02-23T23:03:59;6.50;65.80
17659;DHT22;8948;51.534;8.262;2024-02-23T23:09:00;6.50;66.10
17659;DHT22;8948;51.534;8.262;2024-02-23T23:14:00;6.50;65.40
17659;DHT22;8948;51.534;8.262;2024-02-23T23:19:01;6.60;65.70
17659;DHT22;8948;51.534;8.262;2024-02-23T23:24:03;6.60;65.40
17659;DHT22;8948;51.534;8.262;2024-02-23T23:29:03;6.50;65.40
17659;DHT22;8948;51.534;8.262;2024-02-23T23:34:04;6.50;65.50
17659;DHT22;8948;51.534;8.262;2024-02-23T23:39:05;6.40;65.80
17659;DHT22;8948;51.534;8.262;2024-02-23T23:44:05;6.50;65.60
17659;DHT22;8948;51.534;8.262;2024-02-23T23:49:06;6.50;65.80
17659;DHT22;8948;51.534;8.262;2024-02-23T23:54:07;6.50;65.90
17659;DHT22;8948;51.534;8.262;2024-02-23T23:59:07;6.30;66.30
